createdAt,value
2023-05-16T00:01:20.554Z,14.50
2023-05-16T00:03:47.174Z,9.48
2023-05-16T00:06:13.792Z,10.88
2023-05-16T00:08:40.962Z,12.27
2023-05-16T00:11:07.634Z,12.93
2023-05-16T00:13:34.278Z,14.03
2023-05-16T00:16:02.677Z,9.13
2023-05-16T00:18:29.376Z,10.52
2023-05-16T00:20:56.854Z,16.35
2023-05-16T00:23:23.399Z,10.10
2023-05-16T00:25:49.899Z,12.43
2023-05-16T00:28:16.888Z,8.57
2023-05-16T00:30:43.406Z,13.02
2023-05-16T00:33:10.028Z,9.20
2023-05-16T00:35:36.647Z,8.25
2023-05-16T00:38:03.384Z,12.13
2023-05-16T00:40:29.974Z,16.63
2023-05-16T00:42:56.520Z,9.40
2023-05-16T00:45:23.104Z,12.73
2023-05-16T00:47:51.132Z,9.30
2023-05-16T00:50:19.032Z,12.20
2023-05-16T00:52:45.758Z,11.02
2023-05-16T00:55:13.290Z,9.60
2023-05-16T00:57:41.147Z,10.35
2023-05-16T01:00:10.760Z,12.95
2023-05-16T01:02:38.276Z,11.50
2023-05-16T01:05:05.465Z,13.60
2023-05-16T01:07:32.188Z,9.45
2023-05-16T01:09:59.552Z,8.40
2023-05-16T01:12:40.018Z,11.07
2023-05-16T01:15:12.543Z,10.60
2023-05-16T01:17:51.217Z,9.00
2023-05-16T01:20:58.321Z,8.07
2023-05-16T01:23:33.856Z,10.90
2023-05-16T01:26:19.132Z,8.48
2023-05-16T01:28:47.689Z,7.13
2023-05-16T01:31:14.762Z,10.30
2023-05-16T01:33:41.984Z,10.85
2023-05-16T01:36:33.183Z,10.85
2023-05-16T01:39:10.829Z,14.75
2023-05-16T01:42:04.518Z,7.73
2023-05-16T01:45:09.714Z,8.13
2023-05-16T01:47:41.479Z,8.98
2023-05-16T01:50:14.253Z,9.23
2023-05-16T01:52:45.066Z,8.00
2023-05-16T01:55:16.655Z,10.07
2023-05-16T01:57:45.429Z,9.80
2023-05-16T02:00:12.692Z,8.15
2023-05-16T02:02:42.102Z,10.05
2023-05-16T02:05:09.159Z,11.80
2023-05-16T02:07:36.290Z,10.90
2023-05-16T02:10:03.007Z,11.20
2023-05-16T02:12:29.520Z,9.20
2023-05-16T02:14:56.069Z,9.95
2023-05-16T02:17:22.732Z,5.82
2023-05-16T02:19:49.216Z,6.30
2023-05-16T02:22:15.724Z,10.32
2023-05-16T02:24:42.298Z,8.45
2023-05-16T02:27:08.850Z,11.00
2023-05-16T02:29:35.562Z,7.18
2023-05-16T02:32:02.119Z,11.87
2023-05-16T02:34:28.638Z,9.93
2023-05-16T02:36:55.141Z,8.70
2023-05-16T02:39:22.099Z,10.32
2023-05-16T02:41:51.015Z,9.68
2023-05-16T02:44:17.496Z,11.30
2023-05-16T02:46:44.093Z,11.02
2023-05-16T02:49:10.771Z,9.98
2023-05-16T02:51:38.685Z,10.13
2023-05-16T02:54:05.421Z,6.57
2023-05-16T02:56:31.901Z,12.73
2023-05-16T02:58:58.412Z,7.95
2023-05-16T03:01:24.996Z,10.73
2023-05-16T03:03:51.946Z,5.70
2023-05-16T03:06:18.777Z,7.38
2023-05-16T03:08:45.304Z,5.70
2023-05-16T03:11:11.867Z,8.43
2023-05-16T03:13:40.509Z,9.35
2023-05-16T03:16:07.077Z,7.97
2023-05-16T03:18:35.558Z,12.05
2023-05-16T03:21:03.200Z,9.13
2023-05-16T03:23:29.818Z,7.80
2023-05-16T03:25:56.436Z,7.70
2023-05-16T03:28:23.019Z,5.68
2023-05-16T03:30:49.530Z,9.88
2023-05-16T03:33:16.201Z,7.20
2023-05-16T03:35:43.661Z,6.05
2023-05-16T03:38:10.267Z,9.02
2023-05-16T03:40:36.871Z,8.90
2023-05-16T03:43:04.082Z,8.85
2023-05-16T03:45:31.442Z,8.97
2023-05-16T03:47:58.252Z,6.18
2023-05-16T03:50:25.483Z,8.25
2023-05-16T03:52:53.901Z,7.28
2023-05-16T03:55:21.079Z,8.30
2023-05-16T03:57:49.884Z,9.27
2023-05-16T04:00:17.019Z,9.68
2023-05-16T04:02:43.968Z,8.95
2023-05-16T04:05:11.727Z,7.65
2023-05-16T04:07:38.290Z,7.20
2023-05-16T04:10:05.957Z,9.00
2023-05-16T04:12:32.472Z,9.70
2023-05-16T04:14:59.138Z,10.95
2023-05-16T04:17:25.880Z,9.95
2023-05-16T04:19:52.484Z,6.50
2023-05-16T04:22:21.692Z,8.93
2023-05-16T04:24:48.350Z,8.85
2023-05-16T04:27:15.130Z,9.07
2023-05-16T04:29:42.569Z,6.90
2023-05-16T04:32:09.595Z,8.13
2023-05-16T04:34:39.808Z,7.10
2023-05-16T04:37:08.134Z,9.85
2023-05-16T04:39:36.201Z,7.85
2023-05-16T04:42:04.417Z,8.50
2023-05-16T04:44:31.123Z,7.55
2023-05-16T04:46:57.821Z,10.77
2023-05-16T04:49:24.397Z,9.10
2023-05-16T04:51:51.101Z,10.52
2023-05-16T04:54:17.674Z,9.48
2023-05-16T04:56:44.169Z,10.07
2023-05-16T04:59:10.812Z,15.37
2023-05-16T05:01:37.416Z,6.28
2023-05-16T05:04:04.067Z,6.07
2023-05-16T05:06:31.428Z,5.60
2023-05-16T05:08:57.961Z,9.35
2023-05-16T05:11:27.169Z,10.07
2023-05-16T05:13:53.682Z,8.32
2023-05-16T05:16:20.314Z,6.55
2023-05-16T05:18:47.033Z,8.98
2023-05-16T05:21:13.990Z,7.47
2023-05-16T05:23:40.488Z,11.50
2023-05-16T05:26:07.052Z,8.07
2023-05-16T05:28:33.775Z,7.72
2023-05-16T05:31:00.337Z,8.68
2023-05-16T05:33:30.397Z,5.40
2023-05-16T05:35:57.576Z,12.13
2023-05-16T05:38:24.227Z,8.60
2023-05-16T05:40:51.000Z,6.88
2023-05-16T05:43:17.718Z,9.82
2023-05-16T05:45:44.785Z,8.15
2023-05-16T05:48:12.485Z,7.40
2023-05-16T05:50:39.249Z,11.52
2023-05-16T05:53:06.005Z,8.65
2023-05-16T05:55:32.563Z,7.32
2023-05-16T05:57:59.156Z,7.28
2023-05-16T06:00:26.102Z,11.80
2023-05-16T06:02:53.021Z,7.53
2023-05-16T06:05:19.911Z,7.40
2023-05-16T06:07:46.468Z,8.48
2023-05-16T06:10:13.043Z,8.05
2023-05-16T06:12:39.499Z,8.00
2023-05-16T06:15:06.569Z,12.65
2023-05-16T06:17:33.363Z,9.27
2023-05-16T06:20:00.171Z,8.60
2023-05-16T06:22:27.608Z,13.77
2023-05-16T06:24:54.124Z,6.63
2023-05-16T06:27:20.717Z,5.82
2023-05-16T06:29:47.309Z,6.25
2023-05-16T06:32:13.858Z,6.85
2023-05-16T06:34:40.466Z,4.30
2023-05-16T06:37:07.010Z,16.30
2023-05-16T06:39:33.759Z,8.70
2023-05-16T06:42:00.895Z,10.57
2023-05-16T06:44:31.891Z,10.70
2023-05-16T06:46:58.831Z,7.45
2023-05-16T06:49:25.507Z,10.53
2023-05-16T06:51:52.036Z,7.93
2023-05-16T06:54:18.596Z,5.93
2023-05-16T06:56:45.577Z,9.02
2023-05-16T06:59:12.172Z,12.70
2023-05-16T07:01:38.847Z,7.73
2023-05-16T07:04:08.441Z,6.22
2023-05-16T07:06:35.229Z,7.78
2023-05-16T07:09:02.841Z,5.20
2023-05-16T07:11:29.460Z,6.78
2023-05-16T07:13:56.037Z,6.03
2023-05-16T07:16:22.731Z,7.97
2023-05-16T07:18:49.380Z,5.10
2023-05-16T07:21:16.451Z,6.03
2023-05-16T07:23:43.151Z,3.83
2023-05-16T07:26:09.782Z,3.87
2023-05-16T07:28:36.337Z,6.95
2023-05-16T07:31:02.978Z,7.93
2023-05-16T07:33:29.550Z,5.18
2023-05-16T07:36:07.881Z,3.50
2023-05-16T07:38:42.066Z,5.97
2023-05-16T07:41:08.627Z,3.25
2023-05-16T07:43:35.542Z,3.05
2023-05-16T07:46:02.802Z,6.30
2023-05-16T07:48:29.399Z,4.45
2023-05-16T07:50:56.136Z,4.47
2023-05-16T07:53:24.831Z,5.07
2023-05-16T07:55:51.678Z,5.03
2023-05-16T07:58:18.272Z,4.30
2023-05-16T08:00:44.867Z,5.70
2023-05-16T08:03:11.698Z,3.13
2023-05-16T08:05:38.446Z,3.10
2023-05-16T08:08:05.231Z,3.40
2023-05-16T08:10:31.878Z,2.33
2023-05-16T08:12:58.439Z,4.05
2023-05-16T08:15:27.248Z,2.60
2023-05-16T08:18:02.862Z,4.32
2023-05-16T08:20:29.555Z,2.35
2023-05-16T08:22:56.089Z,4.63
2023-05-16T08:25:22.689Z,2.42
2023-05-16T08:27:50.137Z,5.47
2023-05-16T08:30:16.825Z,3.50
2023-05-16T08:32:43.697Z,3.40
2023-05-16T08:35:11.288Z,4.25
2023-05-16T08:37:37.948Z,3.65
2023-05-16T08:40:10.650Z,3.40
2023-05-16T08:42:38.149Z,2.13
2023-05-16T08:45:05.893Z,5.57
2023-05-16T08:47:33.161Z,3.47
2023-05-16T08:50:02.772Z,4.78
2023-05-16T08:52:31.735Z,2.97
2023-05-16T08:57:36.629Z,3.53
2023-05-16T09:00:07.582Z,3.75
2023-05-16T09:02:34.388Z,2.65
2023-05-16T09:05:03.151Z,3.00
2023-05-16T09:07:29.745Z,2.97
2023-05-16T09:09:56.338Z,4.65
2023-05-16T09:12:22.928Z,3.25
2023-05-16T09:14:49.514Z,6.07
2023-05-16T09:17:18.693Z,2.37
2023-05-16T09:19:52.909Z,5.07
2023-05-16T09:22:19.526Z,3.38
2023-05-16T09:24:46.402Z,3.80
2023-05-16T09:27:14.934Z,5.82
2023-05-16T09:29:42.412Z,4.63
2023-05-16T09:32:17.190Z,6.88
2023-05-16T09:34:51.590Z,4.85
2023-05-16T09:37:18.960Z,5.18
2023-05-16T09:39:50.828Z,3.83
2023-05-16T09:42:19.401Z,5.53
2023-05-16T09:44:50.784Z,2.00
2023-05-16T09:47:21.419Z,5.93
2023-05-16T09:49:52.590Z,4.72
2023-05-16T09:52:19.573Z,5.80
2023-05-16T09:54:49.872Z,3.20
2023-05-16T09:57:20.325Z,2.67
2023-05-16T09:59:47.052Z,3.85
2023-05-16T10:02:14.356Z,4.28
2023-05-16T10:04:41.421Z,3.00
2023-05-16T10:07:09.882Z,6.57
2023-05-16T10:09:37.083Z,5.30
2023-05-16T10:12:07.958Z,2.00
2023-05-16T10:14:36.698Z,2.15
2023-05-16T10:17:07.837Z,4.80
2023-05-16T10:19:38.626Z,10.80
2023-05-16T10:22:07.167Z,3.40
2023-05-16T10:24:48.026Z,4.13
2023-05-16T10:27:16.894Z,4.03
2023-05-16T10:29:54.105Z,8.45
2023-05-16T10:32:23.720Z,7.93
2023-05-16T10:34:51.116Z,2.85
2023-05-16T10:37:17.961Z,2.88
2023-05-16T10:39:45.497Z,4.10
2023-05-16T10:42:14.423Z,3.95
2023-05-16T10:44:42.752Z,4.20
2023-05-16T10:47:20.035Z,3.92
2023-05-16T10:49:46.942Z,5.85
2023-05-16T10:52:15.630Z,3.63
2023-05-16T10:54:44.711Z,3.08
2023-05-16T10:57:17.222Z,4.10
2023-05-16T10:59:48.928Z,3.97
2023-05-16T11:02:35.870Z,6.30
2023-05-16T11:05:03.204Z,6.32
2023-05-16T11:07:35.078Z,5.22
2023-05-16T11:10:11.314Z,7.30
2023-05-16T11:12:39.215Z,6.15
2023-05-16T11:15:29.101Z,5.97
2023-05-16T11:18:08.661Z,5.75
2023-05-16T11:20:39.227Z,4.63
2023-05-16T11:23:23.089Z,5.20
2023-05-16T11:25:55.263Z,4.75
2023-05-16T11:28:24.547Z,4.28
2023-05-16T11:30:56.163Z,5.68
2023-05-16T11:33:24.379Z,4.97
2023-05-16T11:38:43.406Z,4.10
2023-05-16T11:41:10.065Z,4.20
2023-05-16T11:43:38.872Z,3.92
2023-05-16T11:46:05.431Z,6.43
2023-05-16T11:48:36.704Z,5.73
2023-05-16T11:51:03.992Z,6.90
2023-05-16T11:53:30.597Z,4.45
2023-05-16T11:56:00.231Z,5.15
2023-05-16T11:58:27.213Z,5.90
2023-05-16T12:00:53.803Z,4.43
2023-05-16T12:03:21.042Z,3.35
2023-05-16T12:05:54.981Z,2.95
2023-05-16T12:08:22.562Z,7.22
2023-05-16T12:10:51.546Z,4.60
2023-05-16T12:13:23.305Z,4.93
2023-05-16T12:15:51.303Z,5.93
2023-05-16T12:18:17.993Z,4.72
2023-05-16T12:20:44.926Z,3.58
2023-05-16T12:23:13.120Z,3.97
2023-05-16T12:25:49.320Z,6.73
2023-05-16T12:28:16.226Z,8.95
2023-05-16T12:30:44.328Z,5.45
2023-05-16T12:33:12.997Z,6.35
2023-05-16T12:35:41.691Z,5.03
2023-05-16T12:38:13.312Z,2.83
2023-05-16T12:40:41.815Z,4.70
2023-05-16T12:43:20.194Z,4.97
2023-05-16T12:45:55.136Z,5.15
2023-05-16T12:48:22.519Z,4.45
2023-05-16T12:50:49.403Z,3.93
2023-05-16T12:53:18.079Z,5.35
2023-05-16T12:55:45.489Z,6.28
2023-05-16T12:58:12.576Z,3.75
2023-05-16T13:00:39.709Z,4.13
2023-05-16T13:03:07.577Z,6.30
2023-05-16T13:05:36.077Z,6.13
2023-05-16T13:08:03.032Z,5.85
2023-05-16T13:10:29.808Z,4.65
2023-05-16T13:12:58.707Z,7.72
2023-05-16T13:15:26.047Z,5.20
2023-05-16T13:17:52.917Z,6.47
2023-05-16T13:20:20.788Z,6.13
2023-05-16T13:22:47.488Z,3.92
2023-05-16T13:25:14.106Z,5.18
2023-05-16T13:27:40.863Z,8.87
2023-05-16T13:30:07.842Z,7.50
2023-05-16T13:32:34.493Z,6.03
2023-05-16T13:35:01.102Z,3.50
2023-05-16T13:37:27.717Z,3.45
2023-05-16T13:39:57.074Z,7.40
2023-05-16T13:42:23.673Z,3.28
2023-05-16T13:44:50.342Z,7.60
2023-05-16T13:47:16.902Z,3.65
2023-05-16T13:49:43.716Z,6.43
2023-05-16T13:52:10.685Z,5.90
2023-05-16T13:54:37.276Z,8.60
2023-05-16T13:57:05.006Z,3.65
2023-05-16T14:00:02.107Z,7.30
2023-05-16T14:02:18.210Z,4.35
2023-05-16T14:04:44.721Z,6.30
2023-05-16T14:07:11.422Z,7.40
2023-05-16T14:09:40.424Z,6.75
2023-05-16T14:12:07.870Z,6.03
2023-05-16T14:14:35.718Z,7.75
2023-05-16T14:17:03.808Z,5.07
2023-05-16T14:19:30.842Z,6.53
2023-05-16T14:21:57.435Z,6.53
2023-05-16T14:24:25.073Z,3.30
2023-05-16T14:26:58.233Z,5.57
2023-05-16T14:29:25.689Z,5.77
2023-05-16T14:31:52.772Z,3.95
2023-05-16T14:34:19.467Z,3.78
2023-05-16T14:36:46.054Z,5.80
2023-05-16T14:39:12.728Z,6.43
2023-05-16T14:41:39.248Z,4.60
2023-05-16T14:44:05.986Z,6.82
2023-05-16T14:46:32.816Z,4.90
2023-05-16T14:48:59.504Z,6.80
2023-05-16T14:51:26.274Z,6.60
2023-05-16T14:53:52.875Z,5.77
2023-05-16T14:56:19.445Z,3.97
2023-05-16T14:58:45.949Z,5.65
2023-05-16T15:01:12.615Z,2.50
2023-05-16T15:06:09.024Z,4.90
2023-05-16T15:08:35.708Z,4.95
2023-05-16T15:11:02.283Z,4.80
2023-05-16T15:13:28.855Z,4.50
2023-05-16T15:15:55.524Z,5.13
2023-05-16T15:18:22.038Z,6.07
2023-05-16T15:20:48.657Z,3.03
2023-05-16T15:23:15.330Z,3.40
2023-05-16T15:25:41.913Z,4.65
2023-05-16T15:28:08.469Z,5.32
2023-05-16T15:30:35.025Z,4.80
2023-05-16T15:33:02.920Z,4.50
2023-05-16T15:35:29.993Z,5.22
2023-05-16T15:37:57.355Z,3.22
2023-05-16T15:40:27.179Z,4.00
2023-05-16T15:42:54.142Z,5.80
2023-05-16T15:45:21.119Z,6.70
2023-05-16T15:47:47.727Z,5.28
2023-05-16T15:50:14.400Z,4.13
2023-05-16T15:52:41.077Z,3.80
2023-05-16T15:55:07.894Z,4.77
2023-05-16T15:57:34.470Z,4.78
2023-05-16T16:00:01.066Z,5.32
2023-05-16T16:02:27.729Z,4.60
2023-05-16T16:04:54.349Z,5.50
2023-05-16T16:07:20.929Z,5.97
2023-05-16T16:09:47.505Z,5.30
2023-05-16T16:12:14.075Z,5.25
2023-05-16T16:14:41.264Z,4.15
2023-05-16T16:17:07.828Z,3.80
2023-05-16T16:19:34.352Z,2.77
2023-05-16T16:22:00.998Z,4.45
2023-05-16T16:24:27.572Z,6.45
2023-05-16T16:26:54.195Z,3.25
2023-05-16T16:29:20.778Z,3.47
2023-05-16T16:31:47.443Z,5.47
2023-05-16T16:34:14.090Z,6.10
2023-05-16T16:36:40.967Z,5.93
2023-05-16T16:39:07.563Z,5.63
2023-05-16T16:41:34.159Z,4.80
2023-05-16T16:44:00.701Z,5.20
2023-05-16T16:46:27.339Z,3.08
2023-05-16T16:48:54.772Z,3.33
2023-05-16T16:51:21.511Z,4.57
2023-05-16T16:53:48.087Z,3.97
2023-05-16T16:56:14.630Z,3.67
2023-05-16T16:58:41.684Z,5.60
2023-05-16T17:01:08.241Z,3.22
2023-05-16T17:03:35.022Z,5.20
2023-05-16T17:06:02.502Z,6.05
2023-05-16T17:08:29.339Z,11.47
2023-05-16T17:10:55.991Z,5.43
2023-05-16T17:13:22.509Z,8.00
2023-05-16T17:15:49.070Z,5.35
2023-05-16T17:18:15.819Z,6.32
2023-05-16T17:20:42.495Z,6.10
2023-05-16T17:23:09.217Z,4.45
2023-05-16T17:25:35.894Z,5.53
2023-05-16T17:28:02.647Z,6.88
2023-05-16T17:30:29.185Z,5.63
2023-05-16T17:32:55.811Z,2.77
2023-05-16T17:35:22.424Z,5.10
2023-05-16T17:37:49.948Z,5.45
2023-05-16T17:40:17.707Z,7.43
2023-05-16T17:42:45.172Z,5.90
2023-05-16T17:45:13.047Z,4.13
2023-05-16T17:47:40.335Z,4.95
2023-05-16T17:50:09.960Z,4.25
2023-05-16T17:52:37.937Z,8.23
2023-05-16T17:55:06.122Z,5.57
2023-05-16T17:57:34.219Z,5.80
2023-05-16T18:00:01.820Z,6.38
2023-05-16T18:02:31.998Z,5.15
2023-05-16T18:04:58.748Z,5.30
2023-05-16T18:07:26.419Z,4.75
2023-05-16T18:09:53.592Z,3.37
2023-05-16T18:12:20.226Z,2.55
2023-05-16T18:14:47.031Z,4.63
2023-05-16T18:17:13.638Z,4.07
2023-05-16T18:19:40.357Z,4.43
2023-05-16T18:22:08.739Z,3.70
2023-05-16T18:24:35.520Z,6.00
2023-05-16T18:27:03.460Z,4.78
2023-05-16T18:29:30.470Z,3.65
2023-05-16T18:31:57.784Z,4.53
2023-05-16T18:34:24.473Z,4.27
2023-05-16T18:36:51.248Z,3.80
2023-05-16T18:39:18.816Z,5.10
2023-05-16T18:41:46.796Z,5.10
2023-05-16T18:44:16.841Z,5.68
2023-05-16T18:46:46.663Z,3.30
2023-05-16T18:49:14.225Z,3.70
2023-05-16T18:51:41.214Z,3.30
2023-05-16T18:54:07.888Z,3.90
2023-05-16T18:56:34.675Z,3.40
2023-05-16T18:59:02.547Z,6.60
2023-05-16T19:01:29.352Z,3.95
2023-05-16T19:03:56.120Z,5.75
2023-05-16T19:06:23.211Z,5.25
2023-05-16T19:08:50.019Z,6.30
2023-05-16T19:11:17.939Z,5.33
2023-05-16T19:13:47.630Z,7.50
2023-05-16T19:16:14.628Z,7.88
2023-05-16T19:18:41.410Z,5.93
2023-05-16T19:21:08.614Z,6.40
2023-05-16T19:23:35.352Z,4.70
2023-05-16T19:26:02.497Z,5.35
2023-05-16T19:28:29.495Z,7.57
2023-05-16T19:30:56.210Z,5.32
2023-05-16T19:33:22.838Z,5.35
2023-05-16T19:35:51.573Z,7.47
2023-05-16T19:38:19.763Z,6.72
2023-05-16T19:40:46.865Z,6.50
2023-05-16T19:43:13.454Z,6.03
2023-05-16T19:45:40.146Z,6.60
2023-05-16T19:48:07.622Z,7.33
2023-05-16T19:50:37.765Z,6.75
2023-05-16T19:53:05.427Z,7.55
2023-05-16T19:55:34.351Z,7.38
2023-05-16T19:58:02.298Z,7.88
2023-05-16T20:00:29.301Z,6.43
2023-05-16T20:02:55.999Z,7.43
2023-05-16T20:05:23.423Z,8.80
2023-05-16T20:07:50.531Z,7.40
2023-05-16T20:10:18.342Z,6.38
2023-05-16T20:12:45.817Z,10.50
2023-05-16T20:15:12.774Z,8.10
2023-05-16T20:17:40.208Z,6.70
2023-05-16T20:20:09.409Z,6.57
2023-05-16T20:22:39.471Z,7.18
2023-05-16T20:25:07.104Z,8.60
2023-05-16T20:27:34.031Z,5.97
2023-05-16T20:30:02.921Z,8.02
2023-05-16T20:32:29.590Z,9.48
2023-05-16T20:34:56.358Z,8.32
2023-05-16T20:37:26.527Z,7.53
2023-05-16T20:39:54.393Z,9.75
2023-05-16T20:42:21.461Z,8.45
2023-05-16T20:44:48.162Z,8.70
2023-05-16T20:47:14.796Z,10.90
2023-05-16T20:49:41.336Z,6.40
2023-05-16T20:52:07.943Z,8.77
2023-05-16T20:54:35.042Z,7.90
2023-05-16T20:57:06.060Z,6.20
2023-05-16T20:59:33.790Z,9.63
2023-05-16T21:02:00.722Z,10.37
2023-05-16T21:04:27.385Z,7.07
2023-05-16T21:06:54.054Z,8.05
2023-05-16T21:09:20.757Z,7.78
2023-05-16T21:11:47.462Z,7.72
2023-05-16T21:14:14.071Z,10.93
2023-05-16T21:16:40.639Z,11.57
2023-05-16T21:19:07.245Z,6.00
2023-05-16T21:21:33.964Z,8.27
2023-05-16T21:24:00.756Z,5.55
2023-05-16T21:26:27.402Z,8.13
2023-05-16T21:28:55.642Z,5.60
2023-05-16T21:31:22.826Z,10.43
2023-05-16T21:33:51.908Z,7.25
2023-05-16T21:36:19.615Z,5.68
2023-05-16T21:38:46.179Z,8.60
2023-05-16T21:41:13.274Z,6.72
2023-05-16T21:43:40.320Z,6.50
2023-05-16T21:46:07.102Z,11.20
2023-05-16T21:48:33.878Z,9.38
2023-05-16T21:51:00.648Z,10.20
2023-05-16T21:53:27.732Z,8.90
2023-05-16T21:55:54.398Z,8.52
2023-05-16T21:58:21.955Z,10.05
2023-05-16T22:00:49.870Z,7.35
2023-05-16T22:03:19.140Z,9.03
2023-05-16T22:05:46.688Z,9.77
2023-05-16T22:08:13.350Z,9.45
2023-05-16T22:10:39.983Z,7.88
2023-05-16T22:13:08.027Z,8.48
2023-05-16T22:15:34.872Z,8.27
2023-05-16T22:18:01.629Z,7.72
2023-05-16T22:20:28.454Z,8.40
2023-05-16T22:22:55.115Z,9.50
2023-05-16T22:25:21.847Z,6.07
2023-05-16T22:27:48.378Z,10.03
2023-05-16T22:30:14.992Z,6.78
2023-05-16T22:32:41.895Z,9.18
2023-05-16T22:35:08.792Z,10.90
2023-05-16T22:37:35.588Z,8.32
2023-05-16T22:40:02.472Z,8.23
2023-05-16T22:42:30.266Z,8.27
2023-05-16T22:44:57.096Z,9.80
2023-05-16T22:47:23.873Z,12.75
2023-05-16T22:49:50.942Z,10.80
2023-05-16T22:52:17.417Z,9.20
2023-05-16T22:54:44.005Z,8.45
2023-05-16T22:57:10.642Z,13.40
2023-05-16T22:59:37.194Z,8.07
2023-05-16T23:02:03.863Z,10.95
2023-05-16T23:04:30.435Z,12.30
2023-05-16T23:06:57.015Z,9.27
2023-05-16T23:09:23.677Z,10.45
2023-05-16T23:11:50.280Z,7.82
2023-05-16T23:14:17.273Z,7.40
2023-05-16T23:16:43.783Z,8.53
2023-05-16T23:19:10.385Z,9.25
2023-05-16T23:21:37.375Z,13.15
2023-05-16T23:24:04.430Z,9.15
2023-05-16T23:26:31.774Z,9.98
2023-05-16T23:28:58.353Z,9.97
2023-05-16T23:31:24.949Z,14.90
2023-05-16T23:33:51.620Z,11.50
2023-05-16T23:36:18.207Z,10.88
2023-05-16T23:38:44.853Z,10.50
2023-05-16T23:41:11.450Z,10.60
2023-05-16T23:43:38.039Z,19.08
2023-05-16T23:46:04.602Z,9.20
2023-05-16T23:48:31.393Z,9.05
2023-05-16T23:50:58.624Z,9.82
2023-05-16T23:53:29.046Z,12.60
2023-05-16T23:55:56.152Z,10.20
2023-05-16T23:58:22.772Z,15.73
